Time;durP1;ratioP1;P1;durP2;ratioP2;P2;SDS_P1;SDS_P2;PMS_P1;PMS_P2;Temp;Humidity;BMP_temperature;BMP_pressure;BME280_temperature;BME280_humidity;BME280_pressure;Samples;Min_cycle;Max_cycle;Signal;HPM_P1;HPM_P2
2023/01/11 00:02:07;;;;;;;1.60;0.70;;;8.60;99.90;;;;;;5004253;28;20480;-78
2023/01/11 00:04:34;;;;;;;6.90;1.47;;;8.60;99.90;;;;;;5003861;28;21013;-77
2023/01/11 00:07:01;;;;;;;2.03;0.73;;;8.70;99.90;;;;;;5006408;28;20805;-77
2023/01/11 00:09:28;;;;;;;1.60;1.10;;;8.70;99.90;;;;;;5004765;28;20469;-77
2023/01/11 00:11:55;;;;;;;1.80;0.70;;;8.60;99.90;;;;;;5007739;28;20466;-77
2023/01/11 00:14:21;;;;;;;1.80;0.80;;;8.60;99.90;;;;;;5004847;28;20477;-77
2023/01/11 00:16:48;;;;;;;1.50;0.60;;;8.70;99.90;;;;;;5009923;28;20481;-77
2023/01/11 00:19:17;;;;;;;1.50;0.60;;;8.70;99.90;;;;;;5013286;28;20460;-77
2023/01/11 00:21:43;;;;;;;2.00;0.70;;;8.70;99.90;;;;;;5012739;28;20445;-78
2023/01/11 00:24:10;;;;;;;1.60;0.60;;;8.80;99.90;;;;;;5013078;28;20475;-78
2023/01/11 00:26:37;;;;;;;1.50;0.70;;;8.80;99.90;;;;;;5013940;28;20925;-77
2023/01/11 00:29:04;;;;;;;2.90;0.90;;;8.80;99.90;;;;;;5013325;28;20449;-77
2023/01/11 00:31:31;;;;;;;2.17;0.80;;;8.80;99.90;;;;;;5008524;28;20965;-77
2023/01/11 00:33:58;;;;;;;3.10;0.60;;;8.80;99.90;;;;;;5009599;28;21186;-78
2023/01/11 00:36:26;;;;;;;1.97;0.70;;;8.80;99.90;;;;;;5011484;28;20573;-78
2023/01/11 00:38:54;;;;;;;2.07;0.70;;;8.80;99.90;;;;;;5010837;28;20576;-78
2023/01/11 00:49:37;;;;;;;2.27;0.70;;;8.80;99.90;;;;;;5010672;28;20438;-78
2023/01/11 00:52:07;;;;;;;1.50;0.70;;;8.80;99.90;;;;;;5019378;28;20446;-78
2023/01/11 00:54:34;;;;;;;1.70;0.60;;;8.80;99.90;;;;;;5000900;28;20537;-77
2023/01/11 00:57:01;;;;;;;2.70;0.60;;;8.80;99.90;;;;;;5014572;28;20482;-78
2023/01/11 00:59:28;;;;;;;1.50;0.60;;;8.90;99.90;;;;;;5018258;28;20450;-78
2023/01/11 01:01:55;;;;;;;1.40;0.67;;;8.90;99.90;;;;;;5018067;28;20460;-80
2023/01/11 01:04:22;;;;;;;1.70;0.73;;;9.00;99.90;;;;;;5017994;28;20467;-78
2023/01/11 01:06:49;;;;;;;1.53;0.87;;;9.10;99.90;;;;;;5018302;28;20485;-78
2023/01/11 01:09:17;;;;;;;1.40;0.67;;;9.10;99.90;;;;;;5016668;28;21079;-79
2023/01/11 01:11:44;;;;;;;1.60;0.70;;;9.20;99.90;;;;;;5018305;28;20454;-77
2023/01/11 01:14:27;;;;;;;2.27;0.70;;;9.30;99.90;;;;;;5017538;28;20492;-78
2023/01/11 01:16:54;;;;;;;1.40;0.60;;;9.30;99.90;;;;;;5016825;28;21218;-78
2023/01/11 01:19:21;;;;;;;1.30;0.50;;;9.40;99.90;;;;;;5013861;28;20458;-77
2023/01/11 01:21:48;;;;;;;1.50;0.50;;;9.40;99.90;;;;;;5016573;28;20448;-78
2023/01/11 01:24:17;;;;;;;1.40;0.60;;;9.40;99.90;;;;;;5016313;28;20470;-78
2023/01/11 01:26:43;;;;;;;2.93;0.70;;;9.40;99.90;;;;;;5011647;28;20454;-77
2023/01/11 01:29:10;;;;;;;1.30;0.50;;;9.40;99.90;;;;;;5014497;28;20543;-78
2023/01/11 01:31:37;;;;;;;1.43;0.63;;;9.50;99.90;;;;;;5015217;28;21010;-77
2023/01/11 01:34:05;;;;;;;2.20;0.70;;;9.50;99.90;;;;;;5011580;28;20478;-77
2023/01/11 01:36:32;;;;;;;1.30;0.50;;;9.50;99.90;;;;;;5013182;28;20491;-80
2023/01/11 01:38:59;;;;;;;2.37;0.70;;;9.50;99.90;;;;;;5016304;28;20452;-79
2023/01/11 01:41:27;;;;;;;1.40;0.60;;;9.50;99.90;;;;;;5016247;28;20466;-80
2023/01/11 01:43:56;;;;;;;1.50;0.70;;;9.60;99.90;;;;;;5017566;28;20464;-79
2023/01/11 01:46:27;;;;;;;1.30;0.50;;;9.60;99.90;;;;;;5017124;28;20480;-80
2023/01/11 01:48:57;;;;;;;2.43;0.60;;;9.60;99.90;;;;;;5018249;28;20448;-80
2023/01/11 01:51:27;;;;;;;1.30;0.60;;;9.60;99.90;;;;;;5009014;28;20470;-80
2023/01/11 01:53:58;;;;;;;1.50;0.70;;;9.60;99.90;;;;;;5017258;28;20460;-80
2023/01/11 01:56:31;;;;;;;1.57;0.70;;;9.60;99.90;;;;;;5018131;28;20891;-80
2023/01/11 01:59:02;;;;;;;1.97;0.60;;;9.70;99.90;;;;;;5017991;28;20450;-81
2023/01/11 02:01:48;;;;;;;1.30;0.60;;;9.70;99.90;;;;;;5007259;28;20449;-81
2023/01/11 02:04:20;;;;;;;1.67;0.70;;;9.70;99.90;;;;;;5001628;28;20477;-80
2023/01/11 02:06:46;;;;;;;1.43;0.70;;;9.80;99.90;;;;;;5017007;28;20538;-80
2023/01/11 02:09:21;;;;;;;1.30;0.50;;;9.80;99.90;;;;;;5015519;28;20496;-79
2023/01/11 02:11:51;;;;;;;1.50;0.70;;;9.80;99.90;;;;;;5016873;28;20524;-80
2023/01/11 02:14:20;;;;;;;1.30;0.60;;;9.80;99.90;;;;;;5015863;28;20459;-80
2023/01/11 02:16:46;;;;;;;1.60;0.70;;;9.80;99.90;;;;;;5015092;28;20484;-79
2023/01/11 02:19:27;;;;;;;2.47;0.70;;;9.80;99.90;;;;;;5002808;28;20469;-80
2023/01/11 02:22:37;;;;;;;1.40;0.70;;;9.70;99.90;;;;;;5012508;28;20443;-79
2023/01/11 02:25:38;;;;;;;2.13;0.80;;;9.60;99.90;;;;;;4990797;28;20463;-79
2023/01/11 02:28:10;;;;;;;2.67;0.70;;;9.60;99.90;;;;;;4980362;28;20462;-80
2023/01/11 02:30:48;;;;;;;1.50;0.60;;;9.50;99.90;;;;;;5002809;28;20824;-79
2023/01/11 02:33:27;;;;;;;2.57;1.00;;;9.50;99.90;;;;;;5012329;28;20459;-80
2023/01/11 02:36:07;;;;;;;1.30;0.60;;;9.50;99.90;;;;;;5012296;28;20470;-79
2023/01/11 02:38:41;;;;;;;1.30;0.57;;;9.40;99.90;;;;;;5012660;28;20487;-78
2023/01/11 02:41:18;;;;;;;3.00;0.60;;;9.40;99.90;;;;;;5013341;28;20452;-80
2023/01/11 02:46:44;;;;;;;1.40;0.80;;;9.40;99.90;;;;;;5012872;28;20569;-80
2023/01/11 02:49:18;;;;;;;1.90;0.63;;;9.30;99.90;;;;;;5014832;28;20513;-80
2023/01/11 02:51:50;;;;;;;1.40;0.60;;;9.30;99.90;;;;;;5010853;28;20457;-80
2023/01/11 02:54:20;;;;;;;1.30;0.60;;;9.30;99.90;;;;;;5020585;28;20451;-80
2023/01/11 02:56:50;;;;;;;1.60;0.60;;;9.30;99.90;;;;;;5001970;28;20532;-79
2023/01/11 02:59:22;;;;;;;1.30;0.60;;;9.30;99.90;;;;;;4997646;28;20448;-80
2023/01/11 03:01:51;;;;;;;1.30;0.67;;;9.30;99.90;;;;;;5016157;28;20485;-80
2023/01/11 03:04:24;;;;;;;2.27;0.70;;;9.30;99.90;;;;;;5006494;28;20459;-80
2023/01/11 03:06:58;;;;;;;1.60;0.80;;;9.30;99.90;;;;;;4996935;28;20467;-80
2023/01/11 03:09:34;;;;;;;1.93;0.67;;;9.40;99.90;;;;;;4997170;28;20427;-79
2023/01/11 03:15:25;;;;;;;1.33;0.57;;;9.40;99.90;;;;;;5015058;28;20489;-79
2023/01/11 03:18:01;;;;;;;2.17;0.60;;;9.30;99.90;;;;;;5015987;28;20478;-79
2023/01/11 03:20:31;;;;;;;2.53;0.60;;;9.30;99.90;;;;;;5015429;28;20449;-79
2023/01/11 03:23:09;;;;;;;1.30;0.60;;;9.30;99.90;;;;;;5014547;28;20442;-79
2023/01/11 03:25:46;;;;;;;1.33;0.57;;;9.30;99.90;;;;;;4999023;28;20541;-80
2023/01/11 03:28:18;;;;;;;1.50;0.77;;;9.30;99.90;;;;;;5009504;28;20445;-80
2023/01/11 03:30:56;;;;;;;1.60;0.60;;;9.20;99.90;;;;;;5006843;28;20460;-78
2023/01/11 03:33:26;;;;;;;1.50;0.60;;;9.30;99.90;;;;;;5015944;28;20447;-80
2023/01/11 03:36:00;;;;;;;1.30;0.50;;;9.30;99.90;;;;;;4998711;28;20481;-78
2023/01/11 03:38:29;;;;;;;1.50;0.60;;;9.30;99.90;;;;;;5006976;28;20489;-80
2023/01/11 03:41:02;;;;;;;1.30;0.60;;;9.30;99.90;;;;;;5011374;28;20456;-78
2023/01/11 03:43:31;;;;;;;1.40;0.60;;;9.30;99.90;;;;;;5005640;28;20478;-81
2023/01/11 03:46:04;;;;;;;1.40;0.70;;;9.40;99.90;;;;;;4999438;28;20475;-78
2023/01/11 03:48:35;;;;;;;1.30;0.60;;;9.40;99.90;;;;;;5000629;28;20456;-80
2023/01/11 03:51:04;;;;;;;1.30;0.60;;;9.40;99.90;;;;;;5013467;28;20443;-79
2023/01/11 03:53:35;;;;;;;1.40;0.60;;;9.30;99.90;;;;;;5017416;28;20455;-79
2023/01/11 03:56:05;;;;;;;1.40;0.60;;;9.30;99.90;;;;;;5047762;22;20888;-82
2023/01/11 03:58:32;;;;;;;1.60;0.80;;;9.40;99.90;;;;;;5014153;28;20578;-79
2023/01/11 04:01:01;;;;;;;1.40;0.60;;;9.40;99.90;;;;;;5018925;28;20458;-81
2023/01/11 04:03:28;;;;;;;1.73;0.70;;;9.40;99.90;;;;;;5020290;28;20451;-80
2023/01/11 04:05:59;;;;;;;1.47;0.70;;;9.40;99.90;;;;;;5020567;28;20505;-80
2023/01/11 04:08:26;;;;;;;1.30;0.60;;;9.40;99.90;;;;;;5020643;28;20479;-80
2023/01/11 04:10:53;;;;;;;1.50;0.80;;;9.50;99.90;;;;;;5012111;28;20557;-79
2023/01/11 04:13:20;;;;;;;1.60;1.00;;;9.50;99.90;;;;;;5014463;28;21002;-79
2023/01/11 04:15:47;;;;;;;2.03;0.70;;;9.50;99.90;;;;;;5013056;28;20520;-79
2023/01/11 04:18:15;;;;;;;2.10;0.60;;;9.50;99.90;;;;;;5019226;28;21038;-79
2023/01/11 04:20:42;;;;;;;1.40;0.80;;;9.50;99.90;;;;;;5016660;28;20456;-79
2023/01/11 04:23:09;;;;;;;1.30;0.70;;;9.60;99.90;;;;;;5020390;28;20542;-81
2023/01/11 04:25:36;;;;;;;1.70;0.83;;;9.60;99.90;;;;;;5023398;28;20470;-80
2023/01/11 04:28:03;;;;;;;1.53;0.70;;;9.60;99.90;;;;;;5020151;28;20472;-79
2023/01/11 04:30:30;;;;;;;2.23;0.80;;;9.70;99.90;;;;;;5022867;28;20459;-80
2023/01/11 04:32:58;;;;;;;1.60;0.80;;;9.70;99.90;;;;;;5019382;28;20995;-80
2023/01/11 04:35:26;;;;;;;1.83;0.83;;;9.80;99.90;;;;;;5020628;28;20497;-82
2023/01/11 04:37:53;;;;;;;1.60;0.60;;;9.80;99.90;;;;;;5020580;28;20562;-80
2023/01/11 04:40:20;;;;;;;2.00;0.70;;;9.80;99.90;;;;;;5022894;28;20470;-79
2023/01/11 04:42:46;;;;;;;1.57;0.90;;;9.80;99.90;;;;;;5024073;28;20455;-79
2023/01/11 04:45:13;;;;;;;1.80;0.77;;;9.80;99.90;;;;;;5024784;28;20884;-79
2023/01/11 04:47:40;;;;;;;1.40;0.67;;;9.80;99.90;;;;;;5025249;28;20458;-79
2023/01/11 04:50:08;;;;;;;1.30;0.60;;;9.90;99.90;;;;;;5025599;28;20539;-79
2023/01/11 04:52:36;;;;;;;1.53;0.70;;;9.90;99.90;;;;;;5029034;28;20436;-79
2023/01/11 04:55:03;;;;;;;1.50;0.80;;;9.90;99.90;;;;;;5021147;28;20447;-79
2023/01/11 04:57:30;;;;;;;1.53;0.80;;;9.80;99.90;;;;;;5016665;28;20479;-79
2023/01/11 04:59:57;;;;;;;1.30;0.60;;;9.90;99.90;;;;;;5016508;28;20489;-78
2023/01/11 05:02:24;;;;;;;1.30;0.70;;;9.90;99.90;;;;;;5022774;28;20523;-80
2023/01/11 05:04:51;;;;;;;1.50;0.80;;;9.90;99.90;;;;;;5024841;28;20483;-79
2023/01/11 05:07:18;;;;;;;1.70;0.70;;;9.90;99.90;;;;;;5022794;28;20478;-80
2023/01/11 05:09:46;;;;;;;1.30;0.60;;;9.90;99.90;;;;;;5021096;28;20455;-79
2023/01/11 05:12:12;;;;;;;1.40;0.70;;;9.90;99.90;;;;;;5024727;28;20463;-78
2023/01/11 05:14:39;;;;;;;1.87;0.80;;;9.90;99.90;;;;;;5028675;28;20482;-79
2023/01/11 05:17:06;;;;;;;1.37;0.70;;;9.90;99.90;;;;;;5028509;28;20558;-78
2023/01/11 05:19:33;;;;;;;1.40;0.70;;;10.00;99.90;;;;;;5028111;28;20487;-78
2023/01/11 05:22:00;;;;;;;1.40;0.80;;;10.00;99.90;;;;;;5030677;28;20491;-79
2023/01/11 05:24:26;;;;;;;1.80;0.70;;;10.00;99.90;;;;;;5033126;28;20476;-79
2023/01/11 05:26:55;;;;;;;1.57;0.87;;;10.00;99.90;;;;;;5036333;28;20479;-79
2023/01/11 05:29:21;;;;;;;1.33;0.70;;;10.00;99.90;;;;;;5039431;28;20502;-76
2023/01/11 05:31:48;;;;;;;1.40;0.80;;;10.00;99.90;;;;;;5039635;28;20517;-78
2023/01/11 05:34:17;;;;;;;1.80;0.70;;;10.00;99.90;;;;;;5034588;28;20444;-79
2023/01/11 05:36:44;;;;;;;1.60;0.87;;;10.00;99.90;;;;;;5038063;28;20495;-79
2023/01/11 05:39:12;;;;;;;1.43;0.83;;;10.10;99.90;;;;;;5037193;28;20468;-78
2023/01/11 05:41:39;;;;;;;1.40;0.60;;;10.10;99.90;;;;;;5036560;28;20471;-78
2023/01/11 05:46:55;;;;;;;1.50;0.77;;;10.10;99.90;;;;;;5033178;28;20479;-79
2023/01/11 05:49:22;;;;;;;1.40;0.70;;;10.00;99.90;;;;;;5032491;28;20470;-77
2023/01/11 05:51:48;;;;;;;2.60;0.80;;;10.10;99.90;;;;;;5035142;28;20472;-78
2023/01/11 05:54:15;;;;;;;3.00;0.87;;;10.10;99.90;;;;;;5034184;28;20481;-77
2023/01/11 05:56:43;;;;;;;2.27;0.70;;;10.10;99.90;;;;;;5032709;28;20523;-78
2023/01/11 05:59:12;;;;;;;2.83;0.70;;;10.10;99.90;;;;;;5032108;28;20524;-77
2023/01/11 06:01:39;;;;;;;1.60;0.80;;;10.10;99.90;;;;;;5029975;28;20456;-78
2023/01/11 06:04:07;;;;;;;1.40;0.70;;;10.10;99.90;;;;;;5030934;28;20456;-78
2023/01/11 06:06:34;;;;;;;5.10;0.90;;;10.10;99.90;;;;;;5026162;28;20477;-78
2023/01/11 06:09:01;;;;;;;1.70;0.80;;;10.20;99.90;;;;;;5026526;28;20477;-78
2023/01/11 06:11:28;;;;;;;1.40;0.70;;;10.20;99.90;;;;;;5025053;28;20525;-77
2023/01/11 06:13:54;;;;;;;1.40;0.70;;;10.20;99.90;;;;;;5013612;28;20512;-78
2023/01/11 06:16:23;;;;;;;2.10;0.70;;;10.20;99.90;;;;;;5008655;28;20472;-79
2023/01/11 06:18:51;;;;;;;1.60;0.90;;;10.20;99.90;;;;;;5009257;28;20567;-78
2023/01/11 06:21:18;;;;;;;2.63;0.77;;;10.20;99.90;;;;;;5010499;28;20543;-78
2023/01/11 06:23:49;;;;;;;1.90;1.00;;;10.20;99.90;;;;;;5010881;28;20462;-79
2023/01/11 06:26:18;;;;;;;2.57;1.03;;;10.30;99.90;;;;;;5008911;28;20470;-78
2023/01/11 06:28:45;;;;;;;1.60;0.83;;;10.30;99.90;;;;;;5008006;28;20448;-78
2023/01/11 06:31:12;;;;;;;2.03;0.70;;;10.30;99.90;;;;;;5008731;28;20827;-78
2023/01/11 06:33:40;;;;;;;1.57;1.03;;;10.40;99.90;;;;;;5025684;28;20518;-78
2023/01/11 06:36:09;;;;;;;1.50;0.80;;;10.40;99.90;;;;;;5026226;28;20587;-78
2023/01/11 06:38:37;;;;;;;1.50;0.87;;;10.40;99.90;;;;;;5026406;28;20517;-79
2023/01/11 06:41:07;;;;;;;3.80;0.77;;;10.40;99.90;;;;;;5027971;28;20451;-79
2023/01/11 06:43:34;;;;;;;2.17;0.80;;;10.50;99.90;;;;;;5029017;28;20456;-78
2023/01/11 06:46:01;;;;;;;1.50;0.90;;;10.50;99.90;;;;;;5029460;28;20501;-79
2023/01/11 06:48:28;;;;;;;2.13;1.20;;;10.50;99.90;;;;;;5029081;28;20457;-79
2023/01/11 06:50:58;;;;;;;1.40;0.80;;;10.50;99.90;;;;;;5028439;28;20512;-79
2023/01/11 06:53:26;;;;;;;1.60;1.00;;;10.50;99.90;;;;;;5029595;28;20477;-80
2023/01/11 06:55:54;;;;;;;4.70;1.10;;;10.50;99.90;;;;;;5023472;28;20498;-80
2023/01/11 06:58:23;;;;;;;1.60;1.20;;;10.60;99.90;;;;;;5020337;28;20513;-79
2023/01/11 07:00:50;;;;;;;1.43;0.90;;;10.60;99.90;;;;;;5027406;28;20445;-79
2023/01/11 07:03:19;;;;;;;1.60;1.10;;;10.50;99.90;;;;;;5028399;28;20515;-80
2023/01/11 07:05:46;;;;;;;1.80;1.00;;;10.60;99.90;;;;;;5030179;28;20545;-80
2023/01/11 07:08:19;;;;;;;1.70;1.00;;;10.60;99.90;;;;;;5027935;28;20446;-79
2023/01/11 07:10:46;;;;;;;1.87;1.20;;;10.50;99.90;;;;;;5026782;28;20900;-80
2023/01/11 07:13:15;;;;;;;1.70;1.13;;;10.60;99.90;;;;;;5020758;28;20887;-78
2023/01/11 07:15:43;;;;;;;2.10;1.40;;;10.60;99.90;;;;;;5018488;28;20476;-80
2023/01/11 07:18:10;;;;;;;1.73;1.27;;;10.60;99.90;;;;;;5015420;28;20481;-80
2023/01/11 07:20:37;;;;;;;2.23;1.40;;;10.70;99.90;;;;;;5019523;28;20459;-79
2023/01/11 07:23:04;;;;;;;3.50;1.83;;;10.70;99.90;;;;;;5022092;28;20524;-78
2023/01/11 07:25:32;;;;;;;5.37;1.80;;;10.70;99.90;;;;;;5015850;28;20486;-79
2023/01/11 07:28:00;;;;;;;2.17;1.53;;;10.70;99.90;;;;;;5011861;28;20453;-79
2023/01/11 07:30:29;;;;;;;2.23;1.70;;;10.70;99.90;;;;;;5012203;28;20523;-79
2023/01/11 07:32:58;;;;;;;2.10;1.90;;;10.70;99.90;;;;;;5016514;28;20490;-79
2023/01/11 07:35:25;;;;;;;2.50;2.03;;;10.70;99.90;;;;;;5018139;28;20559;-79
2023/01/11 07:37:52;;;;;;;2.20;1.67;;;10.70;99.90;;;;;;5016719;28;20548;-80
2023/01/11 07:40:20;;;;;;;2.43;1.77;;;10.80;99.90;;;;;;5016057;28;20561;-79
2023/01/11 07:45:34;;;;;;;3.13;2.30;;;10.80;99.90;;;;;;5018293;28;21005;-78
2023/01/11 07:48:01;;;;;;;3.00;1.73;;;10.90;99.90;;;;;;5014665;28;20488;-80
2023/01/11 07:50:27;;;;;;;3.40;2.83;;;10.90;99.90;;;;;;5020484;28;20460;-79
2023/01/11 07:52:54;;;;;;;2.23;1.87;;;10.90;99.90;;;;;;5020825;28;20520;-79
2023/01/11 07:55:21;;;;;;;2.90;2.57;;;10.90;99.90;;;;;;5014083;28;20846;-79
2023/01/11 07:57:50;;;;;;;20.00;11.27;;;10.90;99.90;;;;;;5018262;28;20460;-80
2023/01/11 08:00:17;;;;;;;251.73;75.10;;;10.90;99.90;;;;;;5019915;28;20491;-80
2023/01/11 08:02:44;;;;;;;7.80;4.63;;;10.90;99.90;;;;;;5027270;28;20441;-80
2023/01/11 08:05:11;;;;;;;4.10;2.90;;;10.90;99.90;;;;;;5024507;28;20446;-80
2023/01/11 08:07:41;;;;;;;5.27;3.90;;;10.90;99.90;;;;;;5018059;28;20526;-80
2023/01/11 08:10:09;;;;;;;4.57;3.50;;;10.90;99.90;;;;;;5020482;28;20512;-79
2023/01/11 08:15:29;;;;;;;3.70;3.20;;;11.00;99.90;;;;;;5018969;28;21043;-81
2023/01/11 08:17:56;;;;;;;3.00;2.70;;;10.90;99.90;;;;;;5021950;28;20541;-79
2023/01/11 08:20:23;;;;;;;3.83;3.47;;;11.00;99.90;;;;;;5018527;28;20484;-80
2023/01/11 08:22:50;;;;;;;5.80;3.13;;;11.00;99.90;;;;;;5020943;28;20456;-79
2023/01/11 08:25:17;;;;;;;4.60;3.60;;;11.00;99.90;;;;;;5009219;28;21619;-79
2023/01/11 08:27:44;;;;;;;4.90;4.30;;;11.00;99.90;;;;;;5004326;28;20548;-78
2023/01/11 08:30:12;;;;;;;4.97;3.97;;;11.10;99.90;;;;;;5009448;28;20449;-79
2023/01/11 08:32:40;;;;;;;5.73;4.03;;;11.10;99.90;;;;;;5008174;28;20995;-79
2023/01/11 08:35:07;;;;;;;7.73;4.00;;;11.10;99.90;;;;;;5015832;28;20468;-79
2023/01/11 08:37:34;;;;;;;7.40;3.90;;;11.10;99.90;;;;;;5019357;28;20448;-79
2023/01/11 08:40:01;;;;;;;9.57;5.20;;;11.10;99.90;;;;;;5016702;28;20576;-80
2023/01/11 08:42:28;;;;;;;7.63;3.80;;;11.10;99.90;;;;;;5013970;28;20448;-80
2023/01/11 08:44:55;;;;;;;7.20;4.50;;;11.10;99.90;;;;;;5016566;28;20989;-79
2023/01/11 08:47:22;;;;;;;5.10;3.60;;;11.20;99.90;;;;;;5006296;28;20456;-80
2023/01/11 08:49:50;;;;;;;5.10;4.03;;;11.10;99.90;;;;;;5016070;28;20453;-80
2023/01/11 08:52:17;;;;;;;6.63;4.20;;;11.10;99.90;;;;;;5023176;28;20515;-79
2023/01/11 08:54:44;;;;;;;9.03;6.00;;;11.10;99.90;;;;;;5020376;28;20461;-77
2023/01/11 08:57:11;;;;;;;7.83;5.10;;;11.10;99.90;;;;;;5018634;28;20516;-79
2023/01/11 08:59:37;;;;;;;7.23;5.13;;;11.20;99.90;;;;;;5017964;28;20499;-79
2023/01/11 09:02:05;;;;;;;6.67;5.07;;;11.20;99.90;;;;;;5013033;28;20456;-79
2023/01/11 09:04:33;;;;;;;9.03;4.43;;;11.20;99.90;;;;;;5015297;28;20460;-78
2023/01/11 09:07:02;;;;;;;9.00;4.93;;;11.10;99.90;;;;;;5015068;28;20504;-77
2023/01/11 09:09:30;;;;;;;7.87;3.60;;;11.00;99.90;;;;;;5010633;28;20985;-78
2023/01/11 09:11:57;;;;;;;11.20;4.90;;;10.90;99.90;;;;;;5010614;28;20452;-78
2023/01/11 09:14:26;;;;;;;10.37;4.47;;;10.80;99.90;;;;;;5018379;28;20487;-79
2023/01/11 09:16:54;;;;;;;13.60;4.40;;;10.70;99.90;;;;;;5018205;28;20495;-78
2023/01/11 09:19:21;;;;;;;8.93;3.17;;;10.80;99.90;;;;;;5017524;28;20562;-78
2023/01/11 09:21:50;;;;;;;9.90;3.90;;;10.70;99.90;;;;;;5018514;28;20488;-79
2023/01/11 09:24:18;;;;;;;13.10;4.13;;;10.70;99.90;;;;;;5018299;28;20981;-78
2023/01/11 09:26:47;;;;;;;13.10;3.67;;;10.70;99.90;;;;;;5011975;28;21034;-78
2023/01/11 09:29:14;;;;;;;13.17;3.27;;;10.70;99.90;;;;;;5018653;28;20496;-78
2023/01/11 09:31:41;;;;;;;8.80;3.20;;;10.70;99.90;;;;;;5009282;28;20462;-78
2023/01/11 09:34:09;;;;;;;7.50;3.13;;;10.60;99.90;;;;;;5018723;28;20457;-78
2023/01/11 09:36:38;;;;;;;7.90;2.90;;;10.60;99.90;;;;;;5019999;28;20531;-78
2023/01/11 09:39:09;;;;;;;6.30;2.90;;;10.50;99.90;;;;;;5019756;28;20534;-79
2023/01/11 09:42:03;;;;;;;7.23;3.23;;;10.50;99.90;;;;;;5019605;28;20455;-79
2023/01/11 09:44:31;;;;;;;11.70;2.57;;;10.50;99.90;;;;;;5019556;28;20532;-79
2023/01/11 09:47:12;;;;;;;14.97;4.50;;;10.50;99.90;;;;;;5019154;28;20516;-79
2023/01/11 09:49:43;;;;;;;13.63;3.60;;;10.50;99.90;;;;;;5019369;28;20463;-79
2023/01/11 09:52:22;;;;;;;12.17;3.43;;;10.50;99.90;;;;;;5020001;28;20452;-79
2023/01/11 09:54:49;;;;;;;14.13;3.40;;;10.50;99.90;;;;;;5012834;28;20456;-79
2023/01/11 09:57:29;;;;;;;12.30;3.20;;;10.50;99.90;;;;;;5049914;22;20574;-81
2023/01/11 10:00:05;;;;;;;7.47;3.07;;;10.50;99.90;;;;;;5021299;28;20516;-80
2023/01/11 10:02:41;;;;;;;10.73;3.60;;;10.50;99.90;;;;;;5023545;28;20480;-80
2023/01/11 10:05:48;;;;;;;11.80;3.57;;;10.50;99.90;;;;;;5019634;28;20454;-80
2023/01/11 10:08:29;;;;;;;7.37;3.03;;;10.50;99.90;;;;;;4992120;28;20577;-81
2023/01/11 10:11:04;;;;;;;21.37;4.27;;;10.60;99.90;;;;;;5014111;28;20459;-80
2023/01/11 10:13:44;;;;;;;10.73;4.40;;;10.70;99.90;;;;;;5008352;28;20470;-81
2023/01/11 10:16:23;;;;;;;11.73;4.93;;;10.70;99.90;;;;;;5015162;28;20512;-80
2023/01/11 10:19:11;;;;;;;7.57;4.37;;;10.70;99.90;;;;;;5013160;28;20465;-81
2023/01/11 10:21:45;;;;;;;10.03;4.33;;;10.70;99.90;;;;;;5016566;28;20461;-80
2023/01/11 10:24:19;;;;;;;12.63;6.20;;;10.80;99.90;;;;;;5016024;28;20454;-80
2023/01/11 10:26:50;;;;;;;13.00;5.60;;;10.80;99.90;;;;;;5015303;28;20483;-80
2023/01/11 10:29:37;;;;;;;16.30;5.87;;;10.80;99.90;;;;;;5008580;28;20461;-80
2023/01/11 10:32:30;;;;;;;11.47;6.50;;;10.80;99.90;;;;;;5001167;28;20455;-81
2023/01/11 10:35:16;;;;;;;13.47;6.00;;;10.70;99.90;;;;;;5007981;28;20456;-80
2023/01/11 10:38:01;;;;;;;17.93;6.73;;;10.80;99.90;;;;;;5014416;28;20472;-81
2023/01/11 10:40:38;;;;;;;18.57;6.67;;;10.70;99.90;;;;;;5009161;28;20491;-81
2023/01/11 10:43:15;;;;;;;12.47;5.60;;;10.70;99.90;;;;;;5006405;28;20469;-81
2023/01/11 10:45:49;;;;;;;12.57;5.83;;;10.80;99.90;;;;;;5015543;28;20578;-81
2023/01/11 10:48:22;;;;;;;13.30;6.00;;;10.90;99.90;;;;;;5016538;28;20569;-80
2023/01/11 10:50:58;;;;;;;10.40;5.43;;;10.90;99.90;;;;;;5011055;28;20456;-81
2023/01/11 10:53:29;;;;;;;15.20;5.40;;;10.90;99.90;;;;;;5016725;28;20460;-81
2023/01/11 10:56:04;;;;;;;13.87;3.83;;;10.80;99.90;;;;;;5015458;28;20552;-80
2023/01/11 10:58:45;;;;;;;14.53;4.40;;;10.90;99.90;;;;;;5009452;28;20823;-80
2023/01/11 11:01:27;;;;;;;9.93;4.50;;;11.00;99.90;;;;;;5012622;28;20513;-80
2023/01/11 11:04:06;;;;;;;19.37;4.40;;;11.10;99.90;;;;;;5011446;28;20464;-82
2023/01/11 11:06:43;;;;;;;9.97;3.83;;;11.10;99.90;;;;;;5007033;28;20845;-79
2023/01/11 11:09:19;;;;;;;9.50;4.00;;;11.10;99.90;;;;;;5005529;28;20485;-79
2023/01/11 11:11:52;;;;;;;12.07;6.17;;;11.30;99.90;;;;;;5011413;28;20444;-79
2023/01/11 11:14:24;;;;;;;15.20;3.80;;;11.50;99.90;;;;;;5012007;28;20543;-81
2023/01/11 11:17:01;;;;;;;9.40;3.80;;;11.60;99.90;;;;;;5015295;28;20544;-80
2023/01/11 11:19:31;;;;;;;12.50;3.30;;;11.50;99.90;;;;;;5015695;28;20932;-79
2023/01/11 11:21:59;;;;;;;10.07;3.40;;;11.40;99.90;;;;;;4998642;28;20450;-79
2023/01/11 11:24:32;;;;;;;10.63;3.30;;;11.30;99.90;;;;;;4998758;28;20540;-80
2023/01/11 11:27:08;;;;;;;15.20;3.37;;;11.10;99.90;;;;;;4999305;28;20477;-79
2023/01/11 11:29:42;;;;;;;8.53;3.20;;;11.10;99.90;;;;;;5005308;28;20532;-80
2023/01/11 11:32:20;;;;;;;10.90;2.90;;;11.00;99.90;;;;;;5013156;28;20438;-78
2023/01/11 11:34:48;;;;;;;11.47;2.87;;;11.00;99.90;;;;;;5019542;28;20516;-79
2023/01/11 11:37:31;;;;;;;17.47;3.03;;;10.90;99.90;;;;;;5017538;28;20499;-80
2023/01/11 11:39:58;;;;;;;16.80;3.10;;;10.80;99.90;;;;;;5007509;28;20484;-78
2023/01/11 11:42:27;;;;;;;8.13;2.10;;;10.90;99.90;;;;;;5005164;28;20544;-79
2023/01/11 11:45:14;;;;;;;4.20;1.87;;;10.90;99.90;;;;;;4996521;28;20466;-78
2023/01/11 11:47:45;;;;;;;9.50;2.33;;;11.00;99.90;;;;;;4997017;28;20471;-79
2023/01/11 11:50:24;;;;;;;9.43;2.10;;;11.10;99.90;;;;;;5004129;28;21072;-80
2023/01/11 11:52:54;;;;;;;8.40;3.13;;;11.20;99.90;;;;;;5010693;28;20531;-79
2023/01/11 11:55:27;;;;;;;10.57;3.33;;;11.70;99.90;;;;;;5016559;28;20612;-79
2023/01/11 11:57:55;;;;;;;9.73;2.20;;;11.50;99.90;;;;;;5015130;28;20522;-79
2023/01/11 12:00:25;;;;;;;8.70;3.00;;;11.70;99.90;;;;;;5014591;28;20517;-79
2023/01/11 12:02:57;;;;;;;8.33;2.47;;;12.10;99.90;;;;;;5016079;28;20457;-79
2023/01/11 12:05:24;;;;;;;16.83;3.53;;;12.60;99.90;;;;;;5016443;28;20492;-77
2023/01/11 12:07:53;;;;;;;10.03;3.67;;;13.00;99.90;;;;;;5017780;28;20460;-79
2023/01/11 12:10:22;;;;;;;6.50;2.73;;;12.70;99.90;;;;;;5006949;28;20477;-79
2023/01/11 12:12:52;;;;;;;8.40;3.07;;;14.00;99.90;;;;;;5001663;28;20967;-79
2023/01/11 12:15:22;;;;;;;7.57;2.57;;;15.00;99.90;;;;;;5010453;28;20451;-79
2023/01/11 12:17:49;;;;;;;9.83;2.73;;;15.30;99.90;;;;;;5019846;28;20822;-78
2023/01/11 12:20:40;;;;;;;10.77;2.80;;;16.20;99.90;;;;;;5017899;28;20990;-78
2023/01/11 12:23:25;;;;;;;6.90;2.50;;;17.10;99.90;;;;;;5014832;28;20455;-78
2023/01/11 12:26:12;;;;;;;10.47;3.03;;;16.40;99.90;;;;;;4996562;28;21276;-78
2023/01/11 12:29:05;;;;;;;9.70;2.80;;;15.70;99.90;;;;;;5007623;28;20463;-78
2023/01/11 12:31:42;;;;;;;6.40;2.57;;;14.70;99.90;;;;;;5015605;28;20439;-77
2023/01/11 12:34:19;;;;;;;9.60;4.20;;;13.80;99.90;;;;;;5014375;28;20462;-77
2023/01/11 12:36:55;;;;;;;5.90;2.80;;;13.20;99.90;;;;;;5013832;28;20559;-77
2023/01/11 12:39:29;;;;;;;8.40;3.17;;;12.90;99.90;;;;;;5014863;28;20468;-76
2023/01/11 12:42:10;;;;;;;8.43;2.43;;;12.50;99.90;;;;;;5015419;28;20456;-77
2023/01/11 12:45:02;;;;;;;8.50;3.00;;;12.10;99.90;;;;;;5013441;28;20473;-77
2023/01/11 12:48:10;;;;;;;12.53;3.30;;;11.60;99.90;;;;;;5004561;28;20840;-78
2023/01/11 12:50:48;;;;;;;10.47;3.87;;;11.20;99.90;;;;;;4962024;28;20475;-78
2023/01/11 12:53:32;;;;;;;12.67;4.13;;;11.20;99.90;;;;;;5016062;28;20807;-78
2023/01/11 12:56:24;;;;;;;7.40;3.20;;;11.10;99.90;;;;;;5013767;28;20487;-78
2023/01/11 12:58:58;;;;;;;6.57;4.00;;;11.40;99.90;;;;;;5012729;28;20549;-77
2023/01/11 13:01:41;;;;;;;5.93;3.23;;;12.60;99.90;;;;;;5016585;28;20475;-78
2023/01/11 13:04:46;;;;;;;10.10;3.03;;;13.20;99.90;;;;;;5012617;28;20462;-78
2023/01/11 13:07:34;;;;;;;10.03;3.73;;;14.30;99.90;;;;;;4995549;28;20487;-78
2023/01/11 13:10:16;;;;;;;8.70;2.73;;;15.70;99.90;;;;;;5013390;28;20441;-79
2023/01/11 13:12:47;;;;;;;12.20;3.33;;;15.30;99.90;;;;;;5007528;28;20519;-77
2023/01/11 13:15:32;;;;;;;6.33;2.10;;;15.00;99.90;;;;;;5012354;28;20458;-77
2023/01/11 13:18:04;;;;;;;6.93;3.27;;;14.20;99.90;;;;;;5014899;28;20812;-77
2023/01/11 13:20:41;;;;;;;5.30;1.97;;;13.70;99.90;;;;;;5013438;28;20995;-78
2023/01/11 13:23:14;;;;;;;6.53;2.17;;;12.80;99.90;;;;;;5014000;28;20548;-77
2023/01/11 13:25:48;;;;;;;9.07;2.80;;;12.50;99.90;;;;;;5013972;28;20470;-77
2023/01/11 13:28:24;;;;;;;9.10;2.40;;;12.20;99.90;;;;;;5013908;28;20926;-77
2023/01/11 13:30:51;;;;;;;8.17;2.53;;;11.90;99.90;;;;;;5008394;28;20446;-77
2023/01/11 13:33:22;;;;;;;5.90;2.97;;;11.60;99.90;;;;;;4993373;28;20451;-77